• Guest, pentru o varianta fara reclame a forumului oferim conturi premium. Mai multe detalii aici.

Zsolt

King Nothing
Staff member
fly-ra 2017
Feb 12, 2012
6,631
2,128
113
39
EDDK
flightradar24 feed id
My fr24 statistics
flightaware feed
My flightaware feed
Flightdiary
My fr24 profile
#1
Artileria grea a ajuns si pe la noi.
EDDK 102050Z VRB05G18KT 8000 +TSRA FEW008 SCT016 BKN025CB 18/14 Q1013 BECMG 32005KT NSW





 

witze

Well-Known Member
Premium Member
Feb 13, 2012
1,663
961
113
41
Wuppertal
www.planepictures.ro
Flugstatistik / Flightmemory
[IMG]
#2
Nice lightnings! Oricum aceasta furtuna a fost de vreo trei-patru ori mai slaba ca cea de acum vreo luna jumatate, cand in mai tot vestul Germaniei a fost prapad.